sensor_id;sensor_type;location;lat;lon;timestamp;P1;durP1;ratioP1;P2;durP2;ratioP2
38879;SDS011;25887;30.194;-97.880;2023-04-03T00:01:45;7.75;;;4.93;;
38879;SDS011;25887;30.194;-97.880;2023-04-03T00:04:11;5.85;;;4.05;;
38879;SDS011;25887;30.194;-97.880;2023-04-03T00:06:37;7.50;;;4.20;;
38879;SDS011;25887;30.194;-97.880;2023-04-03T00:09:03;8.07;;;4.13;;
38879;SDS011;25887;30.194;-97.880;2023-04-03T00:11:30;7.50;;;4.85;;
38879;SDS011;25887;30.194;-97.880;2023-04-03T00:13:56;6.57;;;4.22;;
38879;SDS011;25887;30.194;-97.880;2023-04-03T00:16:23;7.93;;;4.30;;
38879;SDS011;25887;30.194;-97.880;2023-04-03T00:18:49;8.15;;;4.03;;
38879;SDS011;25887;30.194;-97.880;2023-04-03T00:21:15;8.80;;;4.85;;
38879;SDS011;25887;30.194;-97.880;2023-04-03T00:23:51;7.63;;;4.25;;
38879;SDS011;25887;30.194;-97.880;2023-04-03T00:26:17;9.77;;;4.03;;
38879;SDS011;25887;30.194;-97.880;2023-04-03T00:28:43;10.48;;;4.45;;
38879;SDS011;25887;30.194;-97.880;2023-04-03T00:31:10;9.30;;;4.28;;
38879;SDS011;25887;30.194;-97.880;2023-04-03T00:33:39;11.57;;;4.60;;
38879;SDS011;25887;30.194;-97.880;2023-04-03T00:36:09;5.45;;;4.38;;
38879;SDS011;25887;30.194;-97.880;2023-04-03T00:38:36;6.13;;;4.15;;
38879;SDS011;25887;30.194;-97.880;2023-04-03T00:41:04;6.85;;;3.55;;
38879;SDS011;25887;30.194;-97.880;2023-04-03T00:43:31;6.28;;;3.83;;
38879;SDS011;25887;30.194;-97.880;2023-04-03T00:45:58;7.90;;;4.07;;
38879;SDS011;25887;30.194;-97.880;2023-04-03T00:48:32;9.35;;;4.07;;
38879;SDS011;25887;30.194;-97.880;2023-04-03T00:50:59;10.18;;;4.05;;
38879;SDS011;25887;30.194;-97.880;2023-04-03T00:53:31;6.88;;;3.78;;
38879;SDS011;25887;30.194;-97.880;2023-04-03T00:56:05;5.63;;;3.47;;
38879;SDS011;25887;30.194;-97.880;2023-04-03T00:58:40;11.55;;;4.13;;
38879;SDS011;25887;30.194;-97.880;2023-04-03T01:01:12;8.40;;;3.72;;
38879;SDS011;25887;30.194;-97.880;2023-04-03T01:03:41;7.65;;;3.40;;
38879;SDS011;25887;30.194;-97.880;2023-04-03T01:06:08;7.10;;;3.60;;
38879;SDS011;25887;30.194;-97.880;2023-04-03T01:08:34;9.38;;;3.20;;
38879;SDS011;25887;30.194;-97.880;2023-04-03T01:11:01;5.43;;;3.38;;
38879;SDS011;25887;30.194;-97.880;2023-04-03T01:13:28;9.15;;;3.65;;
38879;SDS011;25887;30.194;-97.880;2023-04-03T01:19:04;7.95;;;3.30;;
38879;SDS011;25887;30.194;-97.880;2023-04-03T01:24:35;7.78;;;3.35;;
38879;SDS011;25887;30.194;-97.880;2023-04-03T01:27:05;6.10;;;3.53;;
38879;SDS011;25887;30.194;-97.880;2023-04-03T01:29:33;4.25;;;3.15;;
38879;SDS011;25887;30.194;-97.880;2023-04-03T01:32:00;10.73;;;3.75;;
38879;SDS011;25887;30.194;-97.880;2023-04-03T01:34:27;9.25;;;3.60;;
38879;SDS011;25887;30.194;-97.880;2023-04-03T01:36:55;10.23;;;3.85;;
38879;SDS011;25887;30.194;-97.880;2023-04-03T01:39:21;9.82;;;3.60;;
38879;SDS011;25887;30.194;-97.880;2023-04-03T01:41:48;8.40;;;3.40;;
38879;SDS011;25887;30.194;-97.880;2023-04-03T01:47:26;6.37;;;3.10;;
38879;SDS011;25887;30.194;-97.880;2023-04-03T01:49:52;7.00;;;2.90;;
38879;SDS011;25887;30.194;-97.880;2023-04-03T01:52:18;9.35;;;3.28;;
38879;SDS011;25887;30.194;-97.880;2023-04-03T01:54:44;6.10;;;3.33;;
38879;SDS011;25887;30.194;-97.880;2023-04-03T01:57:11;7.13;;;3.30;;
38879;SDS011;25887;30.194;-97.880;2023-04-03T01:59:38;6.80;;;3.08;;
38879;SDS011;25887;30.194;-97.880;2023-04-03T02:02:04;7.90;;;3.33;;
38879;SDS011;25887;30.194;-97.880;2023-04-03T02:04:31;8.55;;;4.13;;
38879;SDS011;25887;30.194;-97.880;2023-04-03T02:06:57;7.75;;;3.63;;
38879;SDS011;25887;30.194;-97.880;2023-04-03T02:09:23;8.38;;;3.10;;
38879;SDS011;25887;30.194;-97.880;2023-04-03T02:11:49;6.82;;;3.55;;
38879;SDS011;25887;30.194;-97.880;2023-04-03T02:14:16;6.18;;;3.38;;
38879;SDS011;25887;30.194;-97.880;2023-04-03T02:16:42;6.68;;;3.50;;
38879;SDS011;25887;30.194;-97.880;2023-04-03T02:19:08;8.45;;;3.20;;
38879;SDS011;25887;30.194;-97.880;2023-04-03T02:21:34;11.43;;;3.65;;
38879;SDS011;25887;30.194;-97.880;2023-04-03T02:24:00;9.25;;;3.10;;
38879;SDS011;25887;30.194;-97.880;2023-04-03T02:26:27;5.10;;;3.08;;
38879;SDS011;25887;30.194;-97.880;2023-04-03T02:28:53;9.02;;;3.20;;
38879;SDS011;25887;30.194;-97.880;2023-04-03T02:31:19;5.45;;;3.20;;
38879;SDS011;25887;30.194;-97.880;2023-04-03T02:33:46;13.68;;;3.33;;
38879;SDS011;25887;30.194;-97.880;2023-04-03T02:36:12;6.15;;;2.97;;
38879;SDS011;25887;30.194;-97.880;2023-04-03T02:38:40;6.45;;;3.20;;
38879;SDS011;25887;30.194;-97.880;2023-04-03T02:41:07;7.65;;;3.55;;
38879;SDS011;25887;30.194;-97.880;2023-04-03T02:43:35;7.80;;;3.60;;
38879;SDS011;25887;30.194;-97.880;2023-04-03T02:46:01;6.85;;;3.47;;
38879;SDS011;25887;30.194;-97.880;2023-04-03T02:48:28;7.15;;;3.85;;
38879;SDS011;25887;30.194;-97.880;2023-04-03T02:50:54;4.35;;;3.28;;
38879;SDS011;25887;30.194;-97.880;2023-04-03T02:53:21;8.65;;;3.63;;
38879;SDS011;25887;30.194;-97.880;2023-04-03T02:55:48;8.95;;;3.92;;
38879;SDS011;25887;30.194;-97.880;2023-04-03T02:58:14;7.65;;;3.78;;
38879;SDS011;25887;30.194;-97.880;2023-04-03T03:00:41;13.55;;;4.07;;
38879;SDS011;25887;30.194;-97.880;2023-04-03T03:03:08;11.02;;;4.10;;
38879;SDS011;25887;30.194;-97.880;2023-04-03T03:08:56;9.43;;;3.83;;
38879;SDS011;25887;30.194;-97.880;2023-04-03T03:11:22;8.32;;;3.80;;
38879;SDS011;25887;30.194;-97.880;2023-04-03T03:13:48;6.82;;;3.80;;
38879;SDS011;25887;30.194;-97.880;2023-04-03T03:16:15;7.13;;;3.72;;
38879;SDS011;25887;30.194;-97.880;2023-04-03T03:18:41;7.63;;;3.75;;
38879;SDS011;25887;30.194;-97.880;2023-04-03T03:21:08;6.55;;;3.40;;
38879;SDS011;25887;30.194;-97.880;2023-04-03T03:23:35;10.02;;;3.47;;
38879;SDS011;25887;30.194;-97.880;2023-04-03T03:26:03;11.32;;;3.88;;
38879;SDS011;25887;30.194;-97.880;2023-04-03T03:28:31;7.05;;;3.75;;
38879;SDS011;25887;30.194;-97.880;2023-04-03T03:30:58;8.20;;;4.18;;
38879;SDS011;25887;30.194;-97.880;2023-04-03T03:33:25;6.47;;;3.30;;
38879;SDS011;25887;30.194;-97.880;2023-04-03T03:35:52;6.60;;;3.75;;
38879;SDS011;25887;30.194;-97.880;2023-04-03T03:38:19;10.23;;;3.55;;
38879;SDS011;25887;30.194;-97.880;2023-04-03T03:40:49;10.02;;;4.47;;
38879;SDS011;25887;30.194;-97.880;2023-04-03T03:43:16;6.63;;;4.18;;
38879;SDS011;25887;30.194;-97.880;2023-04-03T03:45:44;5.97;;;4.10;;
38879;SDS011;25887;30.194;-97.880;2023-04-03T03:48:11;7.30;;;3.55;;
38879;SDS011;25887;30.194;-97.880;2023-04-03T03:57:25;14.23;;;4.00;;
38879;SDS011;25887;30.194;-97.880;2023-04-03T03:59:54;6.93;;;3.92;;
38879;SDS011;25887;30.194;-97.880;2023-04-03T04:05:28;9.13;;;4.68;;
38879;SDS011;25887;30.194;-97.880;2023-04-03T04:07:54;8.13;;;4.35;;
38879;SDS011;25887;30.194;-97.880;2023-04-03T04:10:20;9.13;;;3.55;;
38879;SDS011;25887;30.194;-97.880;2023-04-03T04:12:47;9.20;;;4.68;;
38879;SDS011;25887;30.194;-97.880;2023-04-03T04:15:16;11.13;;;3.92;;
38879;SDS011;25887;30.194;-97.880;2023-04-03T04:17:43;7.63;;;4.18;;
38879;SDS011;25887;30.194;-97.880;2023-04-03T04:20:09;6.32;;;3.58;;
38879;SDS011;25887;30.194;-97.880;2023-04-03T04:22:36;7.53;;;3.90;;
38879;SDS011;25887;30.194;-97.880;2023-04-03T04:25:04;9.10;;;4.15;;
38879;SDS011;25887;30.194;-97.880;2023-04-03T04:27:30;14.50;;;3.97;;
38879;SDS011;25887;30.194;-97.880;2023-04-03T04:29:56;9.45;;;4.30;;
38879;SDS011;25887;30.194;-97.880;2023-04-03T04:32:23;8.57;;;3.92;;
38879;SDS011;25887;30.194;-97.880;2023-04-03T04:34:49;12.98;;;4.65;;
38879;SDS011;25887;30.194;-97.880;2023-04-03T04:37:15;10.90;;;4.15;;
38879;SDS011;25887;30.194;-97.880;2023-04-03T04:39:41;11.95;;;3.97;;
38879;SDS011;25887;30.194;-97.880;2023-04-03T04:42:07;8.82;;;4.30;;
38879;SDS011;25887;30.194;-97.880;2023-04-03T04:44:38;10.05;;;4.15;;
38879;SDS011;25887;30.194;-97.880;2023-04-03T04:47:04;16.05;;;4.28;;
38879;SDS011;25887;30.194;-97.880;2023-04-03T04:49:31;9.07;;;3.83;;
38879;SDS011;25887;30.194;-97.880;2023-04-03T04:51:57;11.13;;;4.03;;
38879;SDS011;25887;30.194;-97.880;2023-04-03T04:54:23;9.93;;;4.53;;
38879;SDS011;25887;30.194;-97.880;2023-04-03T04:56:49;7.63;;;4.03;;
38879;SDS011;25887;30.194;-97.880;2023-04-03T04:59:16;10.90;;;4.93;;
38879;SDS011;25887;30.194;-97.880;2023-04-03T05:01:42;6.32;;;4.05;;
38879;SDS011;25887;30.194;-97.880;2023-04-03T05:04:08;6.95;;;3.58;;
38879;SDS011;25887;30.194;-97.880;2023-04-03T05:06:35;10.85;;;4.43;;
38879;SDS011;25887;30.194;-97.880;2023-04-03T05:09:01;10.07;;;3.88;;
38879;SDS011;25887;30.194;-97.880;2023-04-03T05:11:27;17.35;;;3.97;;
38879;SDS011;25887;30.194;-97.880;2023-04-03T05:13:54;6.95;;;3.65;;
38879;SDS011;25887;30.194;-97.880;2023-04-03T05:16:20;7.82;;;3.78;;
38879;SDS011;25887;30.194;-97.880;2023-04-03T05:18:46;8.30;;;3.88;;
38879;SDS011;25887;30.194;-97.880;2023-04-03T05:21:12;8.13;;;4.05;;
38879;SDS011;25887;30.194;-97.880;2023-04-03T05:23:38;10.27;;;4.30;;
38879;SDS011;25887;30.194;-97.880;2023-04-03T05:26:05;10.60;;;4.20;;
38879;SDS011;25887;30.194;-97.880;2023-04-03T05:28:31;9.80;;;4.40;;
38879;SDS011;25887;30.194;-97.880;2023-04-03T05:30:58;10.57;;;4.20;;
38879;SDS011;25887;30.194;-97.880;2023-04-03T05:33:25;14.45;;;4.20;;
38879;SDS011;25887;30.194;-97.880;2023-04-03T05:35:52;9.60;;;4.15;;
38879;SDS011;25887;30.194;-97.880;2023-04-03T05:38:19;8.75;;;3.88;;
38879;SDS011;25887;30.194;-97.880;2023-04-03T05:40:46;11.15;;;4.72;;
38879;SDS011;25887;30.194;-97.880;2023-04-03T05:43:12;6.60;;;3.92;;
38879;SDS011;25887;30.194;-97.880;2023-04-03T05:45:38;7.82;;;4.20;;
38879;SDS011;25887;30.194;-97.880;2023-04-03T05:48:04;12.38;;;4.75;;
38879;SDS011;25887;30.194;-97.880;2023-04-03T05:50:31;9.05;;;4.05;;
38879;SDS011;25887;30.194;-97.880;2023-04-03T05:52:57;10.30;;;4.35;;
38879;SDS011;25887;30.194;-97.880;2023-04-03T05:55:28;8.68;;;3.90;;
38879;SDS011;25887;30.194;-97.880;2023-04-03T05:57:57;10.55;;;4.20;;
38879;SDS011;25887;30.194;-97.880;2023-04-03T06:00:24;6.78;;;3.65;;
38879;SDS011;25887;30.194;-97.880;2023-04-03T06:02:50;12.55;;;4.35;;
38879;SDS011;25887;30.194;-97.880;2023-04-03T06:05:16;10.60;;;4.18;;
38879;SDS011;25887;30.194;-97.880;2023-04-03T06:07:44;10.48;;;4.63;;
38879;SDS011;25887;30.194;-97.880;2023-04-03T06:10:11;10.13;;;4.32;;
38879;SDS011;25887;30.194;-97.880;2023-04-03T06:12:38;14.75;;;4.00;;
38879;SDS011;25887;30.194;-97.880;2023-04-03T06:15:04;14.55;;;5.00;;
38879;SDS011;25887;30.194;-97.880;2023-04-03T06:17:35;9.52;;;3.90;;
38879;SDS011;25887;30.194;-97.880;2023-04-03T06:20:04;10.05;;;4.57;;
38879;SDS011;25887;30.194;-97.880;2023-04-03T06:22:32;9.95;;;4.10;;
38879;SDS011;25887;30.194;-97.880;2023-04-03T06:24:58;13.32;;;4.40;;
38879;SDS011;25887;30.194;-97.880;2023-04-03T06:27:25;9.60;;;4.78;;
38879;SDS011;25887;30.194;-97.880;2023-04-03T06:29:52;7.68;;;4.40;;
38879;SDS011;25887;30.194;-97.880;2023-04-03T06:32:18;7.03;;;3.95;;
38879;SDS011;25887;30.194;-97.880;2023-04-03T06:34:45;11.05;;;4.18;;
38879;SDS011;25887;30.194;-97.880;2023-04-03T06:37:16;7.53;;;4.15;;
38879;SDS011;25887;30.194;-97.880;2023-04-03T06:39:46;7.97;;;4.22;;
38879;SDS011;25887;30.194;-97.880;2023-04-03T06:42:13;10.30;;;4.43;;
38879;SDS011;25887;30.194;-97.880;2023-04-03T06:44:40;12.73;;;3.63;;
38879;SDS011;25887;30.194;-97.880;2023-04-03T06:47:06;8.35;;;4.10;;
38879;SDS011;25887;30.194;-97.880;2023-04-03T06:49:35;9.85;;;4.15;;
38879;SDS011;25887;30.194;-97.880;2023-04-03T06:52:02;5.95;;;3.90;;
38879;SDS011;25887;30.194;-97.880;2023-04-03T06:54:30;10.98;;;3.88;;
38879;SDS011;25887;30.194;-97.880;2023-04-03T06:56:56;8.98;;;4.30;;
38879;SDS011;25887;30.194;-97.880;2023-04-03T06:59:23;13.45;;;3.75;;
38879;SDS011;25887;30.194;-97.880;2023-04-03T07:01:49;9.02;;;4.55;;
38879;SDS011;25887;30.194;-97.880;2023-04-03T07:04:16;9.25;;;4.32;;
38879;SDS011;25887;30.194;-97.880;2023-04-03T07:06:43;7.75;;;3.97;;
38879;SDS011;25887;30.194;-97.880;2023-04-03T07:09:09;13.25;;;4.22;;
38879;SDS011;25887;30.194;-97.880;2023-04-03T07:11:36;9.30;;;5.28;;
38879;SDS011;25887;30.194;-97.880;2023-04-03T07:14:02;14.07;;;4.85;;
38879;SDS011;25887;30.194;-97.880;2023-04-03T07:16:29;11.35;;;4.18;;
38879;SDS011;25887;30.194;-97.880;2023-04-03T07:18:58;11.75;;;4.78;;
38879;SDS011;25887;30.194;-97.880;2023-04-03T07:21:24;7.78;;;4.60;;
38879;SDS011;25887;30.194;-97.880;2023-04-03T07:23:50;9.65;;;5.05;;
38879;SDS011;25887;30.194;-97.880;2023-04-03T07:26:17;7.80;;;4.38;;
38879;SDS011;25887;30.194;-97.880;2023-04-03T07:28:43;11.38;;;5.13;;
38879;SDS011;25887;30.194;-97.880;2023-04-03T07:31:11;11.50;;;4.05;;
38879;SDS011;25887;30.194;-97.880;2023-04-03T07:33:39;13.70;;;4.65;;
38879;SDS011;25887;30.194;-97.880;2023-04-03T07:36:06;20.58;;;5.18;;
38879;SDS011;25887;30.194;-97.880;2023-04-03T07:38:34;12.98;;;4.63;;
38879;SDS011;25887;30.194;-97.880;2023-04-03T07:41:01;10.95;;;4.82;;
38879;SDS011;25887;30.194;-97.880;2023-04-03T07:43:27;12.13;;;4.85;;
38879;SDS011;25887;30.194;-97.880;2023-04-03T07:45:54;12.70;;;5.30;;
38879;SDS011;25887;30.194;-97.880;2023-04-03T07:48:24;10.00;;;5.10;;
38879;SDS011;25887;30.194;-97.880;2023-04-03T07:50:51;7.57;;;4.53;;
38879;SDS011;25887;30.194;-97.880;2023-04-03T07:53:18;15.85;;;4.45;;
38879;SDS011;25887;30.194;-97.880;2023-04-03T07:55:48;8.45;;;5.05;;
38879;SDS011;25887;30.194;-97.880;2023-04-03T07:58:17;8.15;;;4.53;;
38879;SDS011;25887;30.194;-97.880;2023-04-03T08:00:44;8.45;;;4.78;;
38879;SDS011;25887;30.194;-97.880;2023-04-03T08:03:12;8.20;;;4.30;;
38879;SDS011;25887;30.194;-97.880;2023-04-03T08:05:40;8.57;;;4.65;;
38879;SDS011;25887;30.194;-97.880;2023-04-03T08:08:08;11.70;;;5.20;;
38879;SDS011;25887;30.194;-97.880;2023-04-03T08:13:01;11.90;;;5.72;;
38879;SDS011;25887;30.194;-97.880;2023-04-03T08:15:29;15.38;;;5.35;;
38879;SDS011;25887;30.194;-97.880;2023-04-03T08:17:57;10.75;;;4.85;;
38879;SDS011;25887;30.194;-97.880;2023-04-03T08:20:24;13.38;;;5.07;;
38879;SDS011;25887;30.194;-97.880;2023-04-03T08:22:50;8.70;;;4.85;;
38879;SDS011;25887;30.194;-97.880;2023-04-03T08:25:17;12.57;;;5.78;;
38879;SDS011;25887;30.194;-97.880;2023-04-03T08:27:44;13.35;;;5.88;;
38879;SDS011;25887;30.194;-97.880;2023-04-03T08:30:11;12.57;;;5.70;;
38879;SDS011;25887;30.194;-97.880;2023-04-03T08:32:37;13.50;;;5.18;;
38879;SDS011;25887;30.194;-97.880;2023-04-03T08:35:04;13.57;;;6.15;;
38879;SDS011;25887;30.194;-97.880;2023-04-03T08:37:31;12.02;;;5.20;;
38879;SDS011;25887;30.194;-97.880;2023-04-03T08:40:00;10.95;;;5.70;;
38879;SDS011;25887;30.194;-97.880;2023-04-03T08:45:12;12.65;;;6.07;;
38879;SDS011;25887;30.194;-97.880;2023-04-03T08:47:44;11.10;;;5.88;;
38879;SDS011;25887;30.194;-97.880;2023-04-03T08:50:39;14.77;;;5.65;;
38879;SDS011;25887;30.194;-97.880;2023-04-03T08:53:13;13.70;;;5.63;;
38879;SDS011;25887;30.194;-97.880;2023-04-03T08:55:53;15.20;;;6.20;;
38879;SDS011;25887;30.194;-97.880;2023-04-03T08:58:21;13.50;;;5.78;;
38879;SDS011;25887;30.194;-97.880;2023-04-03T09:00:51;8.75;;;5.57;;
38879;SDS011;25887;30.194;-97.880;2023-04-03T09:03:20;14.95;;;6.38;;
38879;SDS011;25887;30.194;-97.880;2023-04-03T09:05:53;14.90;;;6.55;;
38879;SDS011;25887;30.194;-97.880;2023-04-03T09:11:46;11.43;;;5.47;;
38879;SDS011;25887;30.194;-97.880;2023-04-03T09:20:15;12.00;;;6.10;;
38879;SDS011;25887;30.194;-97.880;2023-04-03T09:25:42;13.05;;;6.32;;
38879;SDS011;25887;30.194;-97.880;2023-04-03T09:28:09;14.82;;;6.30;;
38879;SDS011;25887;30.194;-97.880;2023-04-03T09:30:35;12.38;;;6.90;;
38879;SDS011;25887;30.194;-97.880;2023-04-03T09:33:03;13.23;;;6.18;;
38879;SDS011;25887;30.194;-97.880;2023-04-03T09:35:32;10.95;;;6.35;;
38879;SDS011;25887;30.194;-97.880;2023-04-03T09:40:38;11.05;;;7.00;;
38879;SDS011;25887;30.194;-97.880;2023-04-03T09:45:54;14.10;;;6.65;;
38879;SDS011;25887;30.194;-97.880;2023-04-03T09:48:25;11.60;;;6.25;;
38879;SDS011;25887;30.194;-97.880;2023-04-03T09:50:54;12.13;;;6.53;;
38879;SDS011;25887;30.194;-97.880;2023-04-03T09:53:33;11.90;;;6.45;;
38879;SDS011;25887;30.194;-97.880;2023-04-03T09:58:48;12.77;;;6.13;;
38879;SDS011;25887;30.194;-97.880;2023-04-03T10:01:26;12.57;;;6.25;;
38879;SDS011;25887;30.194;-97.880;2023-04-03T10:04:17;13.57;;;6.72;;
38879;SDS011;25887;30.194;-97.880;2023-04-03T10:06:46;14.60;;;6.65;;
38879;SDS011;25887;30.194;-97.880;2023-04-03T10:09:32;17.45;;;6.28;;
38879;SDS011;25887;30.194;-97.880;2023-04-03T10:12:05;12.45;;;6.72;;
38879;SDS011;25887;30.194;-97.880;2023-04-03T10:14:35;13.73;;;7.13;;
38879;SDS011;25887;30.194;-97.880;2023-04-03T10:17:15;13.10;;;6.75;;
38879;SDS011;25887;30.194;-97.880;2023-04-03T10:19:51;15.18;;;6.38;;
38879;SDS011;25887;30.194;-97.880;2023-04-03T10:30:25;15.35;;;7.07;;
38879;SDS011;25887;30.194;-97.880;2023-04-03T10:41:56;14.77;;;5.88;;
38879;SDS011;25887;30.194;-97.880;2023-04-03T10:47:09;11.10;;;6.15;;
38879;SDS011;25887;30.194;-97.880;2023-04-03T10:49:56;16.00;;;6.32;;
38879;SDS011;25887;30.194;-97.880;2023-04-03T10:52:40;12.70;;;6.57;;
38879;SDS011;25887;30.194;-97.880;2023-04-03T10:57:52;14.25;;;6.68;;
38879;SDS011;25887;30.194;-97.880;2023-04-03T11:00:25;14.50;;;6.55;;
38879;SDS011;25887;30.194;-97.880;2023-04-03T11:03:12;16.00;;;5.97;;
38879;SDS011;25887;30.194;-97.880;2023-04-03T11:05:52;16.30;;;6.90;;
38879;SDS011;25887;30.194;-97.880;2023-04-03T11:08:28;15.93;;;6.75;;
38879;SDS011;25887;30.194;-97.880;2023-04-03T11:11:13;11.38;;;6.60;;
38879;SDS011;25887;30.194;-97.880;2023-04-03T11:13:49;13.88;;;6.85;;
38879;SDS011;25887;30.194;-97.880;2023-04-03T11:16:30;11.30;;;6.20;;
38879;SDS011;25887;30.194;-97.880;2023-04-03T11:19:10;12.77;;;6.68;;
38879;SDS011;25887;30.194;-97.880;2023-04-03T11:21:54;13.93;;;6.97;;
38879;SDS011;25887;30.194;-97.880;2023-04-03T11:24:27;15.27;;;7.50;;
38879;SDS011;25887;30.194;-97.880;2023-04-03T11:26:56;20.90;;;7.47;;
38879;SDS011;25887;30.194;-97.880;2023-04-03T11:29:27;14.65;;;7.88;;
38879;SDS011;25887;30.194;-97.880;2023-04-03T11:34:48;14.52;;;7.03;;
38879;SDS011;25887;30.194;-97.880;2023-04-03T11:37:32;15.93;;;7.28;;
38879;SDS011;25887;30.194;-97.880;2023-04-03T11:40:04;13.00;;;6.90;;
38879;SDS011;25887;30.194;-97.880;2023-04-03T11:46:02;13.57;;;6.80;;
38879;SDS011;25887;30.194;-97.880;2023-04-03T11:53:43;16.50;;;6.97;;
38879;SDS011;25887;30.194;-97.880;2023-04-03T12:01:43;16.73;;;7.18;;
38879;SDS011;25887;30.194;-97.880;2023-04-03T12:04:16;15.45;;;7.32;;
38879;SDS011;25887;30.194;-97.880;2023-04-03T12:09:27;16.80;;;6.55;;
38879;SDS011;25887;30.194;-97.880;2023-04-03T12:12:27;10.63;;;6.43;;
38879;SDS011;25887;30.194;-97.880;2023-04-03T12:17:45;13.32;;;6.28;;
38879;SDS011;25887;30.194;-97.880;2023-04-03T12:23:28;14.55;;;6.90;;
38879;SDS011;25887;30.194;-97.880;2023-04-03T12:26:18;13.43;;;7.15;;
38879;SDS011;25887;30.194;-97.880;2023-04-03T12:28:46;15.23;;;6.88;;
38879;SDS011;25887;30.194;-97.880;2023-04-03T12:31:15;14.02;;;7.50;;
38879;SDS011;25887;30.194;-97.880;2023-04-03T12:36:39;14.43;;;7.03;;
38879;SDS011;25887;30.194;-97.880;2023-04-03T12:41:54;13.98;;;6.97;;
38879;SDS011;25887;30.194;-97.880;2023-04-03T12:44:43;20.92;;;8.48;;
38879;SDS011;25887;30.194;-97.880;2023-04-03T12:47:33;17.97;;;8.03;;
38879;SDS011;25887;30.194;-97.880;2023-04-03T12:50:22;17.35;;;7.43;;
38879;SDS011;25887;30.194;-97.880;2023-04-03T12:53:06;17.73;;;7.40;;
38879;SDS011;25887;30.194;-97.880;2023-04-03T12:55:45;11.95;;;7.38;;
38879;SDS011;25887;30.194;-97.880;2023-04-03T12:58:44;13.00;;;7.28;;
38879;SDS011;25887;30.194;-97.880;2023-04-03T13:04:26;13.40;;;7.35;;
38879;SDS011;25887;30.194;-97.880;2023-04-03T13:10:17;17.02;;;7.97;;
38879;SDS011;25887;30.194;-97.880;2023-04-03T13:17:52;12.60;;;7.30;;
38879;SDS011;25887;30.194;-97.880;2023-04-03T13:20:30;18.20;;;7.88;;
38879;SDS011;25887;30.194;-97.880;2023-04-03T13:23:04;12.05;;;6.78;;
38879;SDS011;25887;30.194;-97.880;2023-04-03T13:25:35;15.32;;;7.57;;
38879;SDS011;25887;30.194;-97.880;2023-04-03T13:28:09;18.67;;;7.93;;
38879;SDS011;25887;30.194;-97.880;2023-04-03T13:33:30;13.40;;;7.57;;
38879;SDS011;25887;30.194;-97.880;2023-04-03T13:41:42;20.25;;;7.45;;
38879;SDS011;25887;30.194;-97.880;2023-04-03T13:44:15;14.15;;;7.10;;
38879;SDS011;25887;30.194;-97.880;2023-04-03T13:46:51;12.13;;;7.68;;
38879;SDS011;25887;30.194;-97.880;2023-04-03T13:49:20;13.77;;;8.27;;
38879;SDS011;25887;30.194;-97.880;2023-04-03T13:51:46;15.75;;;8.18;;
38879;SDS011;25887;30.194;-97.880;2023-04-03T13:54:21;17.55;;;7.78;;
38879;SDS011;25887;30.194;-97.880;2023-04-03T13:56:55;18.13;;;8.95;;
38879;SDS011;25887;30.194;-97.880;2023-04-03T13:59:35;16.58;;;7.72;;
38879;SDS011;25887;30.194;-97.880;2023-04-03T14:04:29;21.65;;;8.52;;
38879;SDS011;25887;30.194;-97.880;2023-04-03T14:06:59;18.77;;;8.27;;
38879;SDS011;25887;30.194;-97.880;2023-04-03T14:09:26;18.20;;;8.60;;
38879;SDS011;25887;30.194;-97.880;2023-04-03T14:11:57;13.48;;;7.47;;
38879;SDS011;25887;30.194;-97.880;2023-04-03T14:14:31;17.75;;;8.95;;
38879;SDS011;25887;30.194;-97.880;2023-04-03T14:17:02;12.05;;;7.57;;
38879;SDS011;25887;30.194;-97.880;2023-04-03T14:19:35;17.33;;;8.77;;
38879;SDS011;25887;30.194;-97.880;2023-04-03T14:22:13;16.00;;;8.57;;
38879;SDS011;25887;30.194;-97.880;2023-04-03T14:24:43;16.90;;;8.77;;
38879;SDS011;25887;30.194;-97.880;2023-04-03T14:27:56;14.30;;;8.15;;
38879;SDS011;25887;30.194;-97.880;2023-04-03T14:30:24;15.82;;;7.97;;
38879;SDS011;25887;30.194;-97.880;2023-04-03T14:32:55;14.77;;;7.97;;
38879;SDS011;25887;30.194;-97.880;2023-04-03T14:35:24;18.98;;;8.65;;
38879;SDS011;25887;30.194;-97.880;2023-04-03T14:37:52;15.18;;;7.93;;
38879;SDS011;25887;30.194;-97.880;2023-04-03T14:40:23;19.00;;;8.77;;
38879;SDS011;25887;30.194;-97.880;2023-04-03T14:42:51;20.17;;;7.93;;
38879;SDS011;25887;30.194;-97.880;2023-04-03T14:45:20;17.30;;;7.93;;
38879;SDS011;25887;30.194;-97.880;2023-04-03T14:47:51;17.73;;;7.70;;
38879;SDS011;25887;30.194;-97.880;2023-04-03T14:50:20;16.58;;;7.63;;
38879;SDS011;25887;30.194;-97.880;2023-04-03T14:52:50;12.75;;;7.45;;
38879;SDS011;25887;30.194;-97.880;2023-04-03T14:55:19;15.52;;;7.65;;
38879;SDS011;25887;30.194;-97.880;2023-04-03T14:57:47;24.80;;;8.27;;
38879;SDS011;25887;30.194;-97.880;2023-04-03T15:00:15;19.42;;;8.63;;
38879;SDS011;25887;30.194;-97.880;2023-04-03T15:02:43;34.92;;;8.75;;
38879;SDS011;25887;30.194;-97.880;2023-04-03T15:05:11;16.80;;;8.45;;
38879;SDS011;25887;30.194;-97.880;2023-04-03T15:07:38;19.48;;;8.25;;
38879;SDS011;25887;30.194;-97.880;2023-04-03T15:10:20;15.48;;;7.63;;
38879;SDS011;25887;30.194;-97.880;2023-04-03T15:12:52;20.75;;;8.20;;
38879;SDS011;25887;30.194;-97.880;2023-04-03T15:15:19;14.30;;;6.65;;
38879;SDS011;25887;30.194;-97.880;2023-04-03T15:17:47;15.63;;;7.53;;
38879;SDS011;25887;30.194;-97.880;2023-04-03T15:20:25;14.15;;;7.53;;
38879;SDS011;25887;30.194;-97.880;2023-04-03T15:22:55;12.57;;;7.80;;
38879;SDS011;25887;30.194;-97.880;2023-04-03T15:25:22;18.80;;;7.75;;
38879;SDS011;25887;30.194;-97.880;2023-04-03T15:27:50;12.90;;;7.93;;
38879;SDS011;25887;30.194;-97.880;2023-04-03T15:30:17;12.50;;;7.85;;
38879;SDS011;25887;30.194;-97.880;2023-04-03T15:32:45;16.55;;;7.07;;
38879;SDS011;25887;30.194;-97.880;2023-04-03T15:35:11;14.00;;;7.53;;
38879;SDS011;25887;30.194;-97.880;2023-04-03T15:37:38;11.05;;;6.70;;
38879;SDS011;25887;30.194;-97.880;2023-04-03T15:40:05;16.10;;;7.80;;
38879;SDS011;25887;30.194;-97.880;2023-04-03T15:42:32;11.70;;;7.15;;
38879;SDS011;25887;30.194;-97.880;2023-04-03T15:44:58;17.80;;;7.53;;
38879;SDS011;25887;30.194;-97.880;2023-04-03T15:47:26;17.67;;;7.38;;
38879;SDS011;25887;30.194;-97.880;2023-04-03T15:49:53;13.38;;;6.82;;
38879;SDS011;25887;30.194;-97.880;2023-04-03T15:52:20;14.77;;;7.30;;
38879;SDS011;25887;30.194;-97.880;2023-04-03T15:54:46;13.07;;;6.88;;
38879;SDS011;25887;30.194;-97.880;2023-04-03T16:00:35;12.02;;;7.40;;
38879;SDS011;25887;30.194;-97.880;2023-04-03T16:03:04;17.67;;;7.43;;
38879;SDS011;25887;30.194;-97.880;2023-04-03T16:05:40;12.30;;;6.93;;
38879;SDS011;25887;30.194;-97.880;2023-04-03T16:08:07;15.40;;;7.05;;
38879;SDS011;25887;30.194;-97.880;2023-04-03T16:10:35;12.43;;;6.78;;
38879;SDS011;25887;30.194;-97.880;2023-04-03T16:13:02;12.93;;;7.97;;
38879;SDS011;25887;30.194;-97.880;2023-04-03T16:15:29;13.05;;;6.90;;
38879;SDS011;25887;30.194;-97.880;2023-04-03T16:17:57;10.52;;;7.13;;
38879;SDS011;25887;30.194;-97.880;2023-04-03T16:20:24;10.43;;;6.80;;
38879;SDS011;25887;30.194;-97.880;2023-04-03T16:22:51;13.55;;;7.35;;
38879;SDS011;25887;30.194;-97.880;2023-04-03T16:25:19;15.43;;;8.13;;
38879;SDS011;25887;30.194;-97.880;2023-04-03T16:27:46;16.23;;;7.65;;
38879;SDS011;25887;30.194;-97.880;2023-04-03T16:30:12;18.20;;;6.60;;
38879;SDS011;25887;30.194;-97.880;2023-04-03T16:36:02;13.52;;;6.30;;
38879;SDS011;25887;30.194;-97.880;2023-04-03T16:38:30;14.63;;;6.80;;